Time;durP1;ratioP1;P1;durP2;ratioP2;P2;SDS_P1;SDS_P2;PMS_P1;PMS_P2;Temp;Humidity;BMP_temperature;BMP_pressure;BME280_temperature;BME280_humidity;BME280_pressure;Samples;Min_cycle;Max_cycle;Signal;HPM_P1;HPM_P2
2023/11/08 00:00:09;;;;;;;8.43;6.75;;;;;;;;;;12818625;22;20076;-70
2023/11/08 00:05:06;;;;;;;9.43;6.95;;;;;;;;;;12818879;22;20023;-70
2023/11/08 00:10:02;;;;;;;12.88;7.32;;;;;;;;;;12818810;22;20100;-70
2023/11/08 00:14:59;;;;;;;8.75;7.30;;;;;;;;;;12819216;22;20027;-70
2023/11/08 00:19:56;;;;;;;10.18;7.97;;;;;;;;;;12818416;22;20027;-71
2023/11/08 00:24:52;;;;;;;9.05;7.80;;;;;;;;;;12818231;22;20423;-69
2023/11/08 00:29:48;;;;;;;12.48;8.85;;;;;;;;;;12817302;22;20440;-69
2023/11/08 00:34:45;;;;;;;10.07;9.02;;;;;;;;;;12818038;22;20484;-68
2023/11/08 00:39:42;;;;;;;14.98;9.70;;;;;;;;;;12811812;22;20104;-67
2023/11/08 00:44:39;;;;;;;12.65;9.68;;;;;;;;;;12817083;22;20029;-69
2023/11/08 00:49:36;;;;;;;15.40;10.05;;;;;;;;;;12817357;22;20019;-69
2023/11/08 00:54:33;;;;;;;12.10;10.02;;;;;;;;;;12811430;22;20059;-68
2023/11/08 00:59:30;;;;;;;14.38;10.10;;;;;;;;;;12818135;22;20085;-68
2023/11/08 01:04:26;;;;;;;13.80;10.77;;;;;;;;;;12817373;22;20023;-68
2023/11/08 01:09:22;;;;;;;12.90;11.00;;;;;;;;;;12817227;22;20026;-67
2023/11/08 01:14:19;;;;;;;11.90;10.70;;;;;;;;;;12816904;22;20102;-68
2023/11/08 01:19:15;;;;;;;16.15;10.95;;;;;;;;;;12816791;22;20027;-67
2023/11/08 01:24:13;;;;;;;15.30;10.45;;;;;;;;;;12814195;22;20047;-68
2023/11/08 01:29:10;;;;;;;20.02;12.10;;;;;;;;;;12815083;22;20023;-68
2023/11/08 01:34:07;;;;;;;17.42;12.60;;;;;;;;;;12816724;22;20502;-67
2023/11/08 01:39:03;;;;;;;15.05;11.75;;;;;;;;;;12816721;22;20027;-67
2023/11/08 01:44:00;;;;;;;13.90;12.07;;;;;;;;;;12816619;22;20483;-67
2023/11/08 01:48:58;;;;;;;16.15;12.23;;;;;;;;;;12811864;22;20072;-67
2023/11/08 01:53:55;;;;;;;13.57;11.60;;;;;;;;;;12815536;22;20684;-69
2023/11/08 01:58:53;;;;;;;14.38;12.07;;;;;;;;;;12814761;22;20056;-69
2023/11/08 02:03:53;;;;;;;15.93;11.80;;;;;;;;;;12810008;22;20019;-69
2023/11/08 02:08:49;;;;;;;13.82;12.35;;;;;;;;;;12814693;22;20045;-68
2023/11/08 02:13:46;;;;;;;12.82;11.13;;;;;;;;;;12815730;22;20362;-69
2023/11/08 02:18:42;;;;;;;13.48;11.38;;;;;;;;;;12816020;22;20025;-68
2023/11/08 02:23:39;;;;;;;17.45;12.07;;;;;;;;;;12815475;22;20023;-68
2023/11/08 02:28:37;;;;;;;12.65;11.35;;;;;;;;;;12815330;22;20030;-68
2023/11/08 02:33:33;;;;;;;16.08;10.98;;;;;;;;;;12815567;22;20027;-67
2023/11/08 02:38:29;;;;;;;12.15;10.88;;;;;;;;;;12815263;22;20030;-67
2023/11/08 02:43:26;;;;;;;14.05;10.02;;;;;;;;;;12815459;22;20021;-67
2023/11/08 02:48:22;;;;;;;10.07;8.82;;;;;;;;;;12809732;22;20034;-68
2023/11/08 02:53:20;;;;;;;10.25;9.18;;;;;;;;;;12814938;22;20349;-68
2023/11/08 02:58:16;;;;;;;10.48;9.48;;;;;;;;;;12811985;22;20037;-68
2023/11/08 03:03:13;;;;;;;11.27;8.95;;;;;;;;;;12814885;22;20069;-67
2023/11/08 03:08:09;;;;;;;11.45;8.95;;;;;;;;;;12815251;22;20030;-67
2023/11/08 03:13:06;;;;;;;11.30;9.60;;;;;;;;;;12809410;22;20034;-68
2023/11/08 03:18:03;;;;;;;9.73;8.73;;;;;;;;;;12816466;22;20019;-67
2023/11/08 03:22:59;;;;;;;10.32;9.25;;;;;;;;;;12815465;22;20019;-67
2023/11/08 03:27:55;;;;;;;10.98;9.13;;;;;;;;;;12820127;22;20030;-67
2023/11/08 03:32:54;;;;;;;9.15;8.25;;;;;;;;;;12819679;22;20461;-67
2023/11/08 03:37:50;;;;;;;11.63;8.73;;;;;;;;;;12817911;22;20026;-67
2023/11/08 03:42:47;;;;;;;13.80;9.40;;;;;;;;;;12820317;22;20524;-68
2023/11/08 03:47:43;;;;;;;12.50;8.85;;;;;;;;;;12821100;22;20090;-67
2023/11/08 03:52:40;;;;;;;9.88;8.68;;;;;;;;;;12816147;22;20457;-68
2023/11/08 03:57:36;;;;;;;12.88;8.85;;;;;;;;;;12820902;22;20023;-67
2023/11/08 04:02:33;;;;;;;11.25;8.27;;;;;;;;;;12820227;22;20625;-68
2023/11/08 04:07:29;;;;;;;9.90;8.88;;;;;;;;;;12821522;22;20509;-69
2023/11/08 04:12:25;;;;;;;12.38;8.75;;;;;;;;;;12819130;22;20036;-68
2023/11/08 04:17:22;;;;;;;10.60;9.50;;;;;;;;;;12820093;22;20046;-67
2023/11/08 04:22:18;;;;;;;11.35;8.85;;;;;;;;;;12815072;22;20027;-68
2023/11/08 04:27:14;;;;;;;10.30;8.57;;;;;;;;;;12819080;22;20026;-67
2023/11/08 04:32:11;;;;;;;9.27;8.35;;;;;;;;;;12819291;22;20090;-72
2023/11/08 04:37:09;;;;;;;9.35;8.45;;;;;;;;;;12819455;22;20110;-70
2023/11/08 04:42:06;;;;;;;14.60;9.25;;;;;;;;;;12819437;22;20019;-70
2023/11/08 04:47:02;;;;;;;11.45;8.80;;;;;;;;;;12816802;22;20019;-71
2023/11/08 04:51:59;;;;;;;11.77;8.32;;;;;;;;;;12819410;22;20069;-70
2023/11/08 04:56:55;;;;;;;14.20;8.88;;;;;;;;;;12817744;22;20073;-71
2023/11/08 05:01:51;;;;;;;10.40;8.95;;;;;;;;;;12809742;22;20030;-70
2023/11/08 05:06:47;;;;;;;9.95;8.50;;;;;;;;;;12814004;22;20350;-70
2023/11/08 05:11:44;;;;;;;15.68;10.50;;;;;;;;;;12815225;22;20042;-72
2023/11/08 05:16:40;;;;;;;11.23;10.02;;;;;;;;;;12818220;22;20080;-72
2023/11/08 05:21:37;;;;;;;11.77;10.68;;;;;;;;;;12816892;22;20027;-71
2023/11/08 05:26:33;;;;;;;15.55;11.00;;;;;;;;;;12812220;22;20062;-71
2023/11/08 05:31:33;;;;;;;17.70;12.45;;;;;;;;;;12816868;22;20027;-71
2023/11/08 05:36:30;;;;;;;12.57;10.98;;;;;;;;;;12813524;22;20329;-71
2023/11/08 05:41:26;;;;;;;14.18;11.93;;;;;;;;;;12818814;22;20031;-72
2023/11/08 05:46:22;;;;;;;15.45;12.80;;;;;;;;;;12815753;22;20279;-71
2023/11/08 05:51:19;;;;;;;16.80;12.52;;;;;;;;;;12817631;22;20192;-70
2023/11/08 05:56:16;;;;;;;14.65;12.95;;;;;;;;;;12816509;22;20023;-72
2023/11/08 06:01:14;;;;;;;14.65;13.15;;;;;;;;;;12819027;22;20023;-71
2023/11/08 06:06:11;;;;;;;13.50;12.15;;;;;;;;;;12819663;22;20030;-71
2023/11/08 06:11:07;;;;;;;14.77;12.15;;;;;;;;;;12819729;22;20106;-71
2023/11/08 06:16:04;;;;;;;13.60;12.00;;;;;;;;;;12818126;22;20667;-72
2023/11/08 06:21:00;;;;;;;13.10;11.82;;;;;;;;;;12818651;22;20019;-71
2023/11/08 06:25:57;;;;;;;12.65;11.60;;;;;;;;;;12810125;22;20038;-72
2023/11/08 06:30:53;;;;;;;12.20;10.73;;;;;;;;;;12817572;22;20365;-70
2023/11/08 06:35:50;;;;;;;13.38;12.00;;;;;;;;;;12815413;22;20016;-72
2023/11/08 06:40:47;;;;;;;11.50;10.48;;;;;;;;;;12812691;22;20019;-71
2023/11/08 06:45:43;;;;;;;13.00;11.68;;;;;;;;;;12818162;22;20019;-71
2023/11/08 06:50:40;;;;;;;12.50;11.25;;;;;;;;;;12818578;22;20050;-71
2023/11/08 07:18:37;;;;;;;10.68;9.68;;;;;;;;;;12564126;23;20025;-74
2023/11/08 07:23:34;;;;;;;10.05;9.05;;;;;;;;;;12766825;22;20480;-73
2023/11/08 07:34:28;;;;;;;10.98;9.55;;;;;;;;;;12880119;22;20019;-74
2023/11/08 07:51:08;;;;;;;10.05;9.07;;;;;;;;;;12694456;22;20086;-74
2023/11/08 07:56:28;;;;;;;10.52;9.02;;;;;;;;;;12749956;22;20119;-72
2023/11/08 08:01:25;;;;;;;12.25;10.07;;;;;;;;;;12754823;22;20034;-72
2023/11/08 08:06:22;;;;;;;11.65;9.52;;;;;;;;;;12755368;22;20028;-72
2023/11/08 08:11:18;;;;;;;11.82;9.23;;;;;;;;;;12756737;22;20023;-73
2023/11/08 08:16:19;;;;;;;12.00;10.88;;;;;;;;;;12756196;22;20654;-72
2023/11/08 08:21:16;;;;;;;11.50;10.25;;;;;;;;;;12756019;22;20362;-73
2023/11/08 08:26:13;;;;;;;12.95;10.52;;;;;;;;;;12758082;22;20027;-73
2023/11/08 08:31:09;;;;;;;11.80;10.75;;;;;;;;;;12757636;22;20023;-73
2023/11/08 08:36:06;;;;;;;12.38;11.18;;;;;;;;;;12766702;22;20038;-73
2023/11/08 08:41:04;;;;;;;12.45;11.15;;;;;;;;;;12792240;22;20035;-73
2023/11/08 08:51:37;;;;;;;11.48;9.35;;;;;;;;;;12814973;22;20651;-73
2023/11/08 09:02:03;;;;;;;10.30;9.30;;;;;;;;;;12708844;22;20103;-74
2023/11/08 09:13:29;;;;;;;11.07;9.98;;;;;;;;;;12818592;22;20427;-73
2023/11/08 09:41:32;;;;;;;13.88;12.40;;;;;;;;;;12732350;22;20027;-73
2023/11/08 09:46:29;;;;;;;18.67;13.60;;;;;;;;;;12800433;22;20023;-72
2023/11/08 09:51:25;;;;;;;14.32;12.80;;;;;;;;;;12818798;22;20518;-73
2023/11/08 09:56:22;;;;;;;18.20;14.30;;;;;;;;;;12803158;22;20023;-73
2023/11/08 10:01:18;;;;;;;19.02;12.10;;;;;;;;;;12854565;22;20106;-73
2023/11/08 10:06:14;;;;;;;18.67;13.95;;;;;;;;;;12881978;22;20027;-73
2023/11/08 10:11:14;;;;;;;16.52;13.52;;;;;;;;;;12854433;22;20062;-73
2023/11/08 10:16:35;;;;;;;14.95;12.73;;;;;;;;;;12850245;22;20080;-72
2023/11/08 10:21:31;;;;;;;15.20;13.07;;;;;;;;;;12811401;22;20023;-72
2023/11/08 10:33:14;;;;;;;16.70;13.63;;;;;;;;;;12738147;22;20011;-73
2023/11/08 10:38:41;;;;;;;16.05;12.50;;;;;;;;;;12624361;23;20017;-73
2023/11/08 10:43:44;;;;;;;15.27;11.55;;;;;;;;;;12624956;23;20017;-74
2023/11/08 10:48:56;;;;;;;14.05;11.32;;;;;;;;;;12564608;23;20486;-74
2023/11/08 10:53:54;;;;;;;13.95;11.90;;;;;;;;;;12695573;22;20462;-75
2023/11/08 10:58:53;;;;;;;17.38;11.23;;;;;;;;;;12749862;22;20015;-74
2023/11/08 11:03:52;;;;;;;12.85;10.50;;;;;;;;;;12753857;22;20026;-74
2023/11/08 11:08:54;;;;;;;11.75;9.73;;;;;;;;;;12727426;22;20043;-75
2023/11/08 11:13:51;;;;;;;10.95;9.43;;;;;;;;;;12755065;22;20070;-75
2023/11/08 11:18:50;;;;;;;12.15;9.90;;;;;;;;;;12755476;22;20027;-76
2023/11/08 11:23:47;;;;;;;13.48;10.13;;;;;;;;;;12755293;22;20023;-76
2023/11/08 12:02:11;;;;;;;9.88;8.75;;;;;;;;;;12809378;22;20027;-73
2023/11/08 12:19:23;;;;;;;14.07;9.23;;;;;;;;;;12745947;22;20019;-73
2023/11/08 12:24:02;;;;;;;15.95;8.95;;;;;;;;;;12840136;22;20088;-74
2023/11/08 12:28:59;;;;;;;12.57;8.65;;;;;;;;;;12880461;22;20361;-73
2023/11/08 12:33:58;;;;;;;12.88;8.43;;;;;;;;;;12881901;22;20080;-74
2023/11/08 13:22:26;;;;;;;17.13;7.75;;;;;;;;;;12216412;23;20027;-74
2023/11/08 13:57:17;;;;;;;;;;;;;;;;;;;;;
2023/11/08 14:09:44;;;;;;;;;;;;;;;;;;;;;
2023/11/08 15:18:38;;;;;;;14.82;7.03;;;;;;;;;;12851979;22;20019;-77
2023/11/08 15:23:34;;;;;;;6.63;6.03;;;;;;;;;;12837982;22;20054;-74
2023/11/08 15:57:09;;;;;;;8.48;7.50;;;;;;;;;;12397640;23;20078;-74
2023/11/08 16:03:01;;;;;;;8.52;7.53;;;;;;;;;;12545670;23;20192;-74
2023/11/08 16:14:58;;;;;;;7.25;6.57;;;;;;;;;;12329475;23;20414;-73
2023/11/08 16:20:46;;;;;;;10.45;7.40;;;;;;;;;;12159900;23;20066;-73
2023/11/08 16:27:07;;;;;;;13.77;7.60;;;;;;;;;;12394585;23;20022;-74
2023/11/08 16:32:20;;;;;;;10.02;6.72;;;;;;;;;;12309979;23;20029;-74
2023/11/08 17:01:12;;;;;;;8.18;7.30;;;;;;;;;;12862009;22;20026;-73
2023/11/08 17:06:23;;;;;;;;;;;;;;;;;;12865743;22;20105;-74
2023/11/08 17:12:02;;;;;;;;;;;;;;;;;;;;;
2023/11/08 17:17:56;;;;;;;11.37;7.43;;;;;;;;;;12760228;22;20356;-74
2023/11/08 17:23:17;;;;;;;7.38;6.13;;;;;;;;;;12861108;22;20018;-74
2023/11/08 17:28:13;;;;;;;9.27;6.00;;;;;;;;;;12884865;22;20333;-74
2023/11/08 17:33:12;;;;;;;8.75;5.95;;;;;;;;;;12886279;22;20345;-75
2023/11/08 17:38:55;;;;;;;8.40;6.55;;;;;;;;;;12862547;22;20084;-72
2023/11/08 17:44:42;;;;;;;;;;;;;;;;;;;;;
2023/11/08 18:02:44;;;;;;;;;;;;;;;;;;;;;
2023/11/08 19:01:20;;;;;;;7.60;5.70;;;;;;;;;;12724263;22;20099;-74
2023/11/08 19:41:10;;;;;;;7.40;5.03;;;;;;;;;;12602628;23;20093;-74
2023/11/08 21:14:29;;;;;;;4.93;3.95;;;;;;;;;;12474174;23;20036;-74
2023/11/08 21:25:54;;;;;;;5.40;3.33;;;;;;;;;;12634205;23;20024;-74
2023/11/08 21:30:51;;;;;;;5.25;3.00;;;;;;;;;;12791702;22;20015;-73
2023/11/08 21:35:48;;;;;;;5.15;3.10;;;;;;;;;;12813446;22;20082;-69
2023/11/08 21:40:44;;;;;;;4.40;3.00;;;;;;;;;;12792440;22;20466;-69
2023/11/08 21:45:43;;;;;;;7.05;3.50;;;;;;;;;;12814158;22;20365;-68
2023/11/08 21:50:42;;;;;;;7.38;3.85;;;;;;;;;;12820063;22;20047;-69
2023/11/08 21:55:39;;;;;;;6.15;3.92;;;;;;;;;;12821142;22;20030;-69
2023/11/08 22:00:36;;;;;;;7.28;3.22;;;;;;;;;;12820443;22;20023;-70
2023/11/08 22:05:32;;;;;;;4.78;4.10;;;;;;;;;;12818357;22;20023;-69
2023/11/08 22:10:29;;;;;;;5.00;3.30;;;;;;;;;;12821796;22;20088;-70
2023/11/08 22:15:25;;;;;;;6.13;4.05;;;;;;;;;;12821783;22;20026;-67
2023/11/08 22:20:22;;;;;;;11.52;5.25;;;;;;;;;;12822772;22;20035;-68
2023/11/08 22:25:18;;;;;;;8.13;3.88;;;;;;;;;;12821270;22;20322;-69
2023/11/08 22:30:15;;;;;;;5.07;3.72;;;;;;;;;;12821652;22;20027;-68
2023/11/08 22:35:12;;;;;;;5.70;3.72;;;;;;;;;;12821556;22;20077;-69
2023/11/08 22:40:09;;;;;;;8.25;3.50;;;;;;;;;;12816730;22;20076;-69
2023/11/08 22:45:07;;;;;;;4.65;3.30;;;;;;;;;;12815546;22;20066;-70
2023/11/08 22:50:04;;;;;;;4.05;3.47;;;;;;;;;;12822552;22;20019;-69
2023/11/08 22:55:00;;;;;;;6.82;3.45;;;;;;;;;;12822296;22;20039;-69
2023/11/08 22:59:57;;;;;;;5.05;3.28;;;;;;;;;;12822546;22;20057;-69
2023/11/08 23:04:54;;;;;;;4.07;2.92;;;;;;;;;;12822003;22;20073;-69
2023/11/08 23:09:53;;;;;;;3.78;2.58;;;;;;;;;;12820116;22;20019;-65
2023/11/08 23:14:49;;;;;;;6.55;3.50;;;;;;;;;;12819591;22;20038;-68
2023/11/08 23:19:52;;;;;;;5.38;3.15;;;;;;;;;;12821035;22;20050;-70
2023/11/08 23:24:49;;;;;;;8.35;3.58;;;;;;;;;;12820773;22;20051;-70
2023/11/08 23:29:46;;;;;;;6.75;3.40;;;;;;;;;;12820878;22;20023;-71
2023/11/08 23:34:42;;;;;;;4.45;3.13;;;;;;;;;;12821390;22;20023;-71
2023/11/08 23:39:39;;;;;;;4.45;3.10;;;;;;;;;;12821890;22;20077;-70
2023/11/08 23:44:35;;;;;;;6.28;3.10;;;;;;;;;;12819994;22;20039;-68
2023/11/08 23:49:31;;;;;;;8.15;3.25;;;;;;;;;;12795124;22;20024;-69
2023/11/08 23:54:28;;;;;;;6.65;3.70;;;;;;;;;;12825706;22;20368;-69
2023/11/08 23:59:26;;;;;;;3.42;3.00;;;;;;;;;;12824390;22;20404;-68
